Aviation Digital Data Service (ADDS)

Output produced by METARs form (2119 UTC 01 October 2022)
found at http://aviationweather.gov/metar/data/
 
KOEO 012115Z AUTO 06003KT 10SM OVC090 18/13 A3031 RMK AO2 T01800126